Airfield :
LOGIN :

Register | Disclaimer

   EN    FR    IT 

 










Legend :    VFR   Marginal VFR   IFR   Intensive IFR   Very Intensive IFR
Visi :
Ceiling :
>= 8 km
>= 3000ft
5 to 8 km
1000 to 3000 ft
1500m to 5 km
500 to 1000 ft
800 to 1500m
200 to 500 ft
< 800m
< 200 ft
Symbols :   Thunderstorms  Fog  Heavy snow  Heavy precipitations  Wind > 20 kt
SIGMETs :     Misc.  Thunderstorms  Icing  Turbulence  Mountain Waves  Volcanic Ashes







- Airport Elevation : 235 ft
- IATA code : BZG


EPBY - Bydgoszcz

CURRENT METAR :
  • 231330Z 15009KT 120V180 7000 NSC M03/M06 Q1024

EXPIRED METARs :
  • 231300Z 17008KT 8000 NSC M02/M06 Q1024
  • 231230Z 17008KT 140V200 8000 FEW014 M03/M06 Q1024
  • 231200Z 12007KT 8000 SCT013 M03/M06 Q1024
  • 231130Z 13009KT 8000 BKN011 M03/M06 Q1024
  • 231100Z 13005KT 100V180 7000 SCT009 BKN010 M03/M05 Q1024
  • 231030Z 13006KT 100V160 6000 SCT008 BKN009 M04/M06 Q1024

TAF TAF EPBY
Valid from the 23 at 12:00 until the 24 at 12:00 UTC


231130Z 2312/2412 14007KT 6000 SCT015
TEMPO 2316/2321 4000 BR
BECMG 2401/2403 22012KT 2000 -RADZ BR BKN005
TEMPO 2403/2406 0600 SNRA BKN002
PROB40
TEMPO 2403/2407 -FZDZ
TEMPO 2406/2412 0600 -DZ FG BKN001
No reported NOTAMs for that airfield.



MET'MAP, your aeronautical weather chart ! - Copyright ORBIFLY December 2007 - Disclaimer

ORBIFLY MET'MAP TEAM :

Programming & Development : Alexandra Zaïnal
Concept & Development : Baudouin d'Aumeries
Co-Development & Prog : Marc-Olivier Méhu
Technical & hardware support : Manuel Goepfert

Contact : metmap@orbifly.com




SOURCES & CREDITS :

   NOAA